createdAt,value
2018-05-24T00:00:32.540Z,3.47
2018-05-24T00:02:58.685Z,6.53
2018-05-24T00:05:24.843Z,4.03
2018-05-24T00:07:51.031Z,3.73
2018-05-24T00:10:17.179Z,3.97
2018-05-24T00:12:43.354Z,4.57
2018-05-24T00:15:09.497Z,8.87
2018-05-24T00:17:37.138Z,3.97
2018-05-24T00:20:03.323Z,6.43
2018-05-24T00:22:29.490Z,6.30
2018-05-24T00:24:55.667Z,4.37
2018-05-24T00:27:21.823Z,3.73
2018-05-24T00:29:48.722Z,4.57
2018-05-24T00:32:14.888Z,4.07
2018-05-24T00:34:41.049Z,3.87
2018-05-24T00:37:07.207Z,6.90
2018-05-24T00:39:33.406Z,3.33
2018-05-24T00:42:00.357Z,4.80
2018-05-24T00:44:26.512Z,4.63
2018-05-24T00:46:52.742Z,3.63
2018-05-24T00:49:18.888Z,5.47
2018-05-24T00:51:45.027Z,4.17
2018-05-24T00:54:11.211Z,3.77
2018-05-24T00:56:37.363Z,4.57
2018-05-24T00:59:03.506Z,3.90
2018-05-24T01:01:29.662Z,3.50
2018-05-24T01:03:55.901Z,4.27
2018-05-24T01:06:21.975Z,3.83
2018-05-24T01:08:48.120Z,5.67
2018-05-24T01:11:14.287Z,6.10
2018-05-24T01:13:40.481Z,4.23
2018-05-24T01:16:06.653Z,3.97
2018-05-24T01:18:33.101Z,3.90
2018-05-24T01:20:59.278Z,4.07
2018-05-24T01:23:25.450Z,3.33
2018-05-24T01:25:51.619Z,3.40
2018-05-24T01:28:17.779Z,3.60
2018-05-24T01:30:43.930Z,4.30
2018-05-24T01:33:10.076Z,4.43
2018-05-24T01:35:36.261Z,4.73
2018-05-24T01:38:03.195Z,3.40
2018-05-24T01:40:29.370Z,3.73
2018-05-24T01:42:55.525Z,4.73
2018-05-24T01:45:21.696Z,4.80
2018-05-24T01:47:47.849Z,3.50
2018-05-24T01:50:14.602Z,3.90
2018-05-24T01:52:40.762Z,3.57
2018-05-24T01:55:06.941Z,3.50
2018-05-24T01:57:33.103Z,4.50
2018-05-24T01:59:59.251Z,3.30
2018-05-24T02:02:25.429Z,6.30
2018-05-24T02:04:51.576Z,4.60
2018-05-24T02:07:18.471Z,3.83
2018-05-24T02:09:44.641Z,3.63
2018-05-24T02:12:10.815Z,5.07
2018-05-24T02:14:36.962Z,3.90
2018-05-24T02:17:03.104Z,3.77
2018-05-24T02:19:29.324Z,4.23
2018-05-24T02:21:55.520Z,3.50
2018-05-24T02:24:21.662Z,3.30
2018-05-24T02:26:48.566Z,3.70
2018-05-24T02:29:14.763Z,4.03
2018-05-24T02:31:40.910Z,3.83
2018-05-24T02:34:07.080Z,3.23
2018-05-24T02:36:33.239Z,5.03
2018-05-24T02:39:00.149Z,3.03
2018-05-24T02:41:27.371Z,4.50
2018-05-24T02:43:53.557Z,5.80
2018-05-24T02:46:19.731Z,6.17
2018-05-24T02:48:45.934Z,3.43
2018-05-24T02:51:12.118Z,4.70
2018-05-24T02:53:38.285Z,5.73
2018-05-24T02:56:04.442Z,3.40
2018-05-24T02:58:31.348Z,3.40
2018-05-24T03:00:57.508Z,3.40
2018-05-24T03:03:23.651Z,3.43
2018-05-24T03:05:49.803Z,6.20
2018-05-24T03:08:16.001Z,4.00
2018-05-24T03:10:42.219Z,4.23
2018-05-24T03:13:08.361Z,5.83
2018-05-24T03:15:34.551Z,3.33
2018-05-24T03:18:00.695Z,4.43
2018-05-24T03:20:26.840Z,5.70
2018-05-24T03:22:53.000Z,5.33
2018-05-24T03:25:19.164Z,5.87
2018-05-24T03:27:45.333Z,3.60
2018-05-24T03:30:11.545Z,3.30
2018-05-24T03:32:37.727Z,4.03
2018-05-24T03:35:03.912Z,4.57
2018-05-24T03:37:30.089Z,4.83
2018-05-24T03:39:56.251Z,3.63
2018-05-24T03:42:22.422Z,4.73
2018-05-24T03:44:48.580Z,2.97
2018-05-24T03:47:14.742Z,6.53
2018-05-24T03:49:41.635Z,3.30
2018-05-24T03:52:07.882Z,3.57
2018-05-24T03:54:33.956Z,4.87
2018-05-24T03:57:00.104Z,5.70
2018-05-24T04:03:01.483Z,3.57
2018-05-24T04:05:27.635Z,3.90
2018-05-24T04:07:53.795Z,3.13
2018-05-24T04:10:21.134Z,4.33
2018-05-24T04:12:47.284Z,3.37
2018-05-24T04:15:14.203Z,4.10
2018-05-24T04:17:40.372Z,3.70
2018-05-24T04:20:06.520Z,3.77
2018-05-24T04:22:32.706Z,3.17
2018-05-24T04:24:59.225Z,8.37
2018-05-24T04:27:26.375Z,3.70
2018-05-24T04:29:52.819Z,4.73
2018-05-24T04:32:19.147Z,4.00
2018-05-24T04:34:45.587Z,3.43
2018-05-24T04:37:13.002Z,4.37
2018-05-24T04:39:39.603Z,5.73
2018-05-24T04:42:05.958Z,5.87
2018-05-24T04:44:32.380Z,6.60
2018-05-24T04:46:58.796Z,5.30
2018-05-24T04:49:25.240Z,3.97
2018-05-24T04:51:51.381Z,4.77
2018-05-24T04:54:18.144Z,3.87
2018-05-24T04:56:44.664Z,5.47
2018-05-24T04:59:11.205Z,3.43
2018-05-24T05:01:38.263Z,5.73
2018-05-24T05:04:04.808Z,5.03
2018-05-24T05:06:31.341Z,3.23
2018-05-24T05:08:59.027Z,4.50
2018-05-24T05:11:27.482Z,5.43
2018-05-24T05:13:54.490Z,4.80
2018-05-24T05:16:20.935Z,5.63
2018-05-24T05:18:47.239Z,5.03
2018-05-24T05:21:13.414Z,5.97
2018-05-24T05:23:39.593Z,4.67
2018-05-24T05:26:05.769Z,5.20
2018-05-24T05:28:32.132Z,5.90
2018-05-24T05:30:58.387Z,3.40
2018-05-24T05:33:24.581Z,4.10
2018-05-24T05:35:50.787Z,3.40
2018-05-24T05:38:17.770Z,4.67
2018-05-24T05:40:43.879Z,5.73
2018-05-24T05:43:10.033Z,4.57
2018-05-24T05:45:36.195Z,5.13
2018-05-24T05:48:02.379Z,8.07
2018-05-24T05:50:29.276Z,5.00
2018-05-24T05:52:55.579Z,4.63
2018-05-24T05:55:21.739Z,5.27
2018-05-24T05:57:47.892Z,3.90
2018-05-24T06:00:14.038Z,4.10
2018-05-24T06:02:40.201Z,4.57
2018-05-24T06:05:06.364Z,4.30
2018-05-24T06:07:32.584Z,3.73
2018-05-24T06:09:58.754Z,8.23
2018-05-24T06:12:24.917Z,7.37
2018-05-24T06:14:51.093Z,4.10
2018-05-24T06:17:17.254Z,6.60
2018-05-24T06:19:43.420Z,5.10
2018-05-24T06:22:09.578Z,6.33
2018-05-24T06:24:35.735Z,4.90
2018-05-24T06:27:01.921Z,5.93
2018-05-24T06:29:28.075Z,3.73
2018-05-24T06:31:54.252Z,4.83
2018-05-24T06:34:21.161Z,4.00
2018-05-24T06:36:47.357Z,3.93
2018-05-24T06:39:13.505Z,5.20
2018-05-24T06:41:39.651Z,8.87
2018-05-24T06:44:05.822Z,7.20
2018-05-24T06:46:32.075Z,4.67
2018-05-24T06:48:58.182Z,4.37
2018-05-24T06:51:24.325Z,4.43
2018-05-24T06:53:50.506Z,4.33
2018-05-24T06:56:16.670Z,5.83
2018-05-24T06:58:42.856Z,5.07
2018-05-24T07:01:09.060Z,5.30
2018-05-24T07:03:35.230Z,4.43
2018-05-24T07:06:01.521Z,5.63
2018-05-24T07:08:28.197Z,4.90
2018-05-24T07:10:55.105Z,4.73
2018-05-24T07:13:21.265Z,5.23
2018-05-24T07:15:47.431Z,6.17
2018-05-24T07:18:14.494Z,6.03
2018-05-24T07:20:40.699Z,4.87
2018-05-24T07:23:06.858Z,5.67
2018-05-24T07:25:33.028Z,5.10
2018-05-24T07:28:00.678Z,4.63
2018-05-24T07:30:26.864Z,5.97
2018-05-24T07:32:53.048Z,5.67
2018-05-24T07:35:19.219Z,4.83
2018-05-24T07:37:45.409Z,5.93
2018-05-24T07:40:11.542Z,4.50
2018-05-24T07:42:37.708Z,4.00
2018-05-24T07:45:03.937Z,4.43
2018-05-24T07:47:30.030Z,4.33
2018-05-24T07:49:56.189Z,5.67
2018-05-24T07:52:22.371Z,4.40
2018-05-24T07:54:48.557Z,9.43
2018-05-24T07:57:14.776Z,4.73
2018-05-24T07:59:40.930Z,4.30
2018-05-24T08:02:07.086Z,6.23
2018-05-24T08:04:33.243Z,5.43
2018-05-24T08:06:59.412Z,4.60
2018-05-24T08:09:25.552Z,4.93
2018-05-24T08:11:51.719Z,4.47
2018-05-24T08:14:18.667Z,8.63
2018-05-24T08:16:45.543Z,5.53
2018-05-24T08:19:11.735Z,4.83
2018-05-24T08:21:37.914Z,5.67
2018-05-24T08:24:04.072Z,5.00
2018-05-24T08:26:30.271Z,4.93
2018-05-24T08:28:56.500Z,6.40
2018-05-24T08:31:22.718Z,4.60
2018-05-24T08:33:48.904Z,5.13
2018-05-24T08:36:15.069Z,7.57
2018-05-24T08:38:41.207Z,5.60
2018-05-24T08:41:07.354Z,5.37
2018-05-24T08:43:33.506Z,5.10
2018-05-24T08:45:59.672Z,7.60
2018-05-24T08:48:25.859Z,4.83
2018-05-24T08:50:52.012Z,8.30
2018-05-24T08:53:18.215Z,6.47
2018-05-24T08:55:44.365Z,6.43
2018-05-24T08:58:10.530Z,7.67
2018-05-24T09:00:36.723Z,5.57
2018-05-24T09:03:02.907Z,7.20
2018-05-24T09:05:29.111Z,6.17
2018-05-24T09:07:55.290Z,5.77
2018-05-24T09:10:22.222Z,5.60
2018-05-24T09:12:48.387Z,5.67
2018-05-24T09:15:14.600Z,6.47
2018-05-24T09:17:40.780Z,6.07
2018-05-24T09:20:07.016Z,6.07
2018-05-24T09:22:33.086Z,7.73
2018-05-24T09:24:59.247Z,5.70
2018-05-24T09:27:25.418Z,6.93
2018-05-24T09:29:51.574Z,5.40
2018-05-24T09:32:17.733Z,7.43
2018-05-24T09:34:43.947Z,6.27
2018-05-24T09:37:10.106Z,5.67
2018-05-24T09:39:37.015Z,6.83
2018-05-24T09:42:03.159Z,5.70
2018-05-24T09:44:29.350Z,6.13
2018-05-24T09:46:55.551Z,6.47
2018-05-24T09:49:22.442Z,6.63
2018-05-24T09:51:48.612Z,5.60
2018-05-24T09:54:14.828Z,10.03
2018-05-24T09:56:40.971Z,8.47
2018-05-24T09:59:07.141Z,10.87
2018-05-24T10:01:33.254Z,6.57
2018-05-24T10:03:59.408Z,6.67
2018-05-24T10:06:26.319Z,7.97
2018-05-24T10:08:52.478Z,6.60
2018-05-24T10:11:18.631Z,6.67
2018-05-24T10:13:44.784Z,7.40
2018-05-24T10:16:11.047Z,6.47
2018-05-24T10:18:37.878Z,7.00
2018-05-24T10:21:04.060Z,6.87
2018-05-24T10:23:30.230Z,7.87
2018-05-24T10:25:56.426Z,6.83
2018-05-24T10:28:23.335Z,7.37
2018-05-24T10:30:49.530Z,6.90
2018-05-24T10:33:15.715Z,7.70
2018-05-24T10:35:41.883Z,7.53
2018-05-24T10:38:08.057Z,7.27
2018-05-24T10:40:34.219Z,7.67
2018-05-24T10:43:00.364Z,7.37
2018-05-24T10:45:26.510Z,7.57
2018-05-24T10:47:52.676Z,9.57
2018-05-24T10:50:18.850Z,7.20
2018-05-24T10:52:45.015Z,7.73
2018-05-24T10:55:11.201Z,7.57
2018-05-24T10:57:37.356Z,7.63
2018-05-24T11:00:04.277Z,9.23
2018-05-24T11:02:30.468Z,7.83
2018-05-24T11:04:56.610Z,8.70
2018-05-24T11:07:22.808Z,10.63
2018-05-24T11:09:49.702Z,7.90
2018-05-24T11:12:15.869Z,8.30
2018-05-24T11:14:42.507Z,8.60
2018-05-24T11:17:08.687Z,9.17
2018-05-24T11:19:34.889Z,9.23
2018-05-24T11:22:01.064Z,9.13
2018-05-24T11:24:27.212Z,9.27
2018-05-24T11:26:53.367Z,8.67
2018-05-24T11:29:19.523Z,8.50
2018-05-24T11:31:46.469Z,8.60
2018-05-24T11:34:12.618Z,11.37
2018-05-24T11:36:38.786Z,9.87
2018-05-24T11:39:04.950Z,9.53
2018-05-24T11:41:31.160Z,10.07
2018-05-24T11:43:57.435Z,9.40
2018-05-24T11:46:23.632Z,9.57
2018-05-24T11:48:49.802Z,8.90
2018-05-24T11:51:16.742Z,9.90
2018-05-24T11:53:42.897Z,9.30
2018-05-24T11:56:09.104Z,9.27
2018-05-24T11:58:35.257Z,10.60
2018-05-24T12:01:01.467Z,11.50
2018-05-24T12:03:27.603Z,11.40
2018-05-24T12:05:55.454Z,10.33
2018-05-24T12:08:21.635Z,10.10
2018-05-24T12:10:47.797Z,9.77
2018-05-24T12:13:13.951Z,11.30
2018-05-24T12:15:40.113Z,10.93
2018-05-24T12:18:06.266Z,14.00
2018-05-24T12:20:32.417Z,10.90
2018-05-24T12:22:58.538Z,11.20
2018-05-24T12:25:24.694Z,10.73
2018-05-24T12:27:51.311Z,10.80
2018-05-24T12:30:17.495Z,10.43
2018-05-24T12:32:43.649Z,10.57
2018-05-24T12:35:10.535Z,11.17
2018-05-24T12:37:36.747Z,12.17
2018-05-24T12:40:03.639Z,12.57
2018-05-24T12:42:29.816Z,11.37
2018-05-24T12:44:55.972Z,11.80
2018-05-24T12:47:22.119Z,11.47
2018-05-24T12:49:49.053Z,11.60
2018-05-24T12:52:15.257Z,14.30
2018-05-24T12:54:41.492Z,12.43
2018-05-24T12:57:08.428Z,12.77
2018-05-24T12:59:34.602Z,12.23
2018-05-24T13:02:00.802Z,12.43
2018-05-24T13:04:27.047Z,11.93
2018-05-24T13:06:53.216Z,11.23
2018-05-24T13:09:19.383Z,11.97
2018-05-24T13:11:45.574Z,12.60
2018-05-24T13:14:11.765Z,12.10
2018-05-24T13:16:37.912Z,12.88
2018-05-24T13:19:04.057Z,13.07
2018-05-24T13:21:31.488Z,12.95
2018-05-24T13:23:57.650Z,13.32
2018-05-24T13:26:23.822Z,12.05
2018-05-24T13:28:49.959Z,12.17
2018-05-24T13:31:16.104Z,12.47
2018-05-24T13:33:42.248Z,12.90
2018-05-24T13:36:09.159Z,13.47
2018-05-24T13:38:35.319Z,12.45
2018-05-24T13:41:01.534Z,12.32
2018-05-24T13:43:28.687Z,12.67
2018-05-24T13:45:54.866Z,12.95
2018-05-24T13:48:21.011Z,12.60
2018-05-24T13:50:47.135Z,11.90
2018-05-24T13:53:13.271Z,12.68
2018-05-24T13:55:39.456Z,12.60
2018-05-24T13:58:05.625Z,11.73
2018-05-24T14:00:31.740Z,12.57
2018-05-24T14:02:57.883Z,12.65
2018-05-24T14:05:24.098Z,12.65
2018-05-24T14:07:50.299Z,12.82
2018-05-24T14:10:31.465Z,13.80
2018-05-24T14:12:57.593Z,13.20
2018-05-24T14:15:23.752Z,13.23
2018-05-24T14:17:49.874Z,12.98
2018-05-24T14:20:15.992Z,12.65
2018-05-24T14:22:42.147Z,12.52
2018-05-24T14:25:08.276Z,13.43
2018-05-24T14:27:34.405Z,14.05
2018-05-24T14:30:00.577Z,12.65
2018-05-24T14:32:27.506Z,11.85
2018-05-24T14:34:53.661Z,11.75
2018-05-24T14:37:19.787Z,11.60
2018-05-24T14:39:45.939Z,11.57
2018-05-24T14:42:12.054Z,9.40
2018-05-24T14:44:38.202Z,9.50
2018-05-24T14:47:04.329Z,7.67
2018-05-24T14:49:30.482Z,8.17
2018-05-24T14:51:56.626Z,7.10
2018-05-24T14:54:23.047Z,5.97
2018-05-24T14:56:49.230Z,6.63
2018-05-24T14:59:15.360Z,6.70
2018-05-24T15:01:41.533Z,6.70
2018-05-24T15:04:07.649Z,6.47
2018-05-24T15:06:33.762Z,6.50
2018-05-24T15:08:59.908Z,6.30
2018-05-24T15:11:26.031Z,7.23
2018-05-24T15:13:52.162Z,6.97
2018-05-24T15:16:18.281Z,6.50
2018-05-24T15:18:44.415Z,7.13
2018-05-24T15:21:10.554Z,7.80
2018-05-24T15:23:36.677Z,6.80
2018-05-24T15:26:02.854Z,7.67
2018-05-24T15:28:28.995Z,8.13
2018-05-24T15:30:55.873Z,8.80
2018-05-24T15:33:22.003Z,8.97
2018-05-24T15:35:48.125Z,8.53
2018-05-24T15:38:14.258Z,9.30
2018-05-24T15:40:40.377Z,9.13
2018-05-24T15:43:06.538Z,8.50
2018-05-24T15:45:32.739Z,9.30
2018-05-24T15:47:58.946Z,8.37
2018-05-24T15:50:25.079Z,9.20
2018-05-24T15:52:51.215Z,8.87
2018-05-24T15:55:18.114Z,9.63
2018-05-24T15:57:44.255Z,10.20
2018-05-24T16:00:10.396Z,9.73
2018-05-24T16:02:36.569Z,9.47
2018-05-24T16:05:02.718Z,9.20
2018-05-24T16:07:28.880Z,9.00
2018-05-24T16:09:55.075Z,8.73
2018-05-24T16:12:21.270Z,9.63
2018-05-24T16:14:47.386Z,9.47
2018-05-24T16:17:13.532Z,8.60
2018-05-24T16:19:39.685Z,9.50
2018-05-24T16:22:05.815Z,9.20
2018-05-24T16:24:31.968Z,9.53
2018-05-24T16:26:58.116Z,9.83
2018-05-24T16:29:24.252Z,9.53
2018-05-24T16:31:50.484Z,10.70
2018-05-24T16:34:17.399Z,10.20
2018-05-24T16:36:43.547Z,10.83
2018-05-24T16:39:09.698Z,10.97
2018-05-24T16:41:35.838Z,12.00
2018-05-24T16:44:02.032Z,11.37
2018-05-24T16:46:28.206Z,10.60
2018-05-24T16:48:54.346Z,10.80
2018-05-24T16:51:20.519Z,10.67
2018-05-24T16:53:46.647Z,10.87
2018-05-24T16:56:12.820Z,11.90
2018-05-24T16:58:39.708Z,10.80
2018-05-24T17:01:05.842Z,10.27
2018-05-24T17:03:32.004Z,10.53
2018-05-24T17:05:58.178Z,10.53
2018-05-24T17:08:24.331Z,10.93
2018-05-24T17:10:50.503Z,10.57
2018-05-24T17:13:16.665Z,11.20
2018-05-24T17:15:42.832Z,11.37
2018-05-24T17:18:08.995Z,10.47
2018-05-24T17:20:36.263Z,11.17
2018-05-24T17:23:02.444Z,11.73
2018-05-24T17:25:28.617Z,10.53
2018-05-24T17:27:54.763Z,11.47
2018-05-24T17:30:20.899Z,10.70
2018-05-24T17:32:47.066Z,10.57
2018-05-24T17:35:13.221Z,9.97
2018-05-24T17:37:39.326Z,10.70
2018-05-24T17:40:05.460Z,24.57
2018-05-24T17:42:31.623Z,11.13
2018-05-24T17:44:57.753Z,11.27
2018-05-24T17:47:23.936Z,10.00
2018-05-24T17:49:50.080Z,11.03
2018-05-24T17:52:16.201Z,10.87
2018-05-24T17:54:42.350Z,11.17
2018-05-24T17:57:08.499Z,11.17
2018-05-24T17:59:34.638Z,11.50
2018-05-24T18:02:01.238Z,11.20
2018-05-24T18:04:27.404Z,11.90
2018-05-24T18:06:53.583Z,11.63
2018-05-24T18:09:19.750Z,10.90
2018-05-24T18:11:45.936Z,12.23
2018-05-24T18:14:12.083Z,11.93
2018-05-24T18:16:38.212Z,11.50
2018-05-24T18:19:04.334Z,11.70
2018-05-24T18:21:30.470Z,11.73
2018-05-24T18:23:56.583Z,10.40
2018-05-24T18:26:22.721Z,11.07
2018-05-24T18:28:48.850Z,11.40
2018-05-24T18:31:14.972Z,11.80
2018-05-24T18:33:41.102Z,11.43
2018-05-24T18:36:07.283Z,11.90
2018-05-24T18:38:33.394Z,12.17
2018-05-24T18:40:59.517Z,11.47
2018-05-24T18:43:25.679Z,12.50
2018-05-24T18:45:51.847Z,12.50
2018-05-24T18:48:18.041Z,12.57
2018-05-24T18:50:44.893Z,12.50
2018-05-24T18:53:11.023Z,11.53
2018-05-24T18:55:37.168Z,12.20
2018-05-24T18:58:03.294Z,12.07
2018-05-24T19:00:29.452Z,11.57
2018-05-24T19:02:55.622Z,12.00
2018-05-24T19:05:21.754Z,11.97
2018-05-24T19:07:47.886Z,11.83
2018-05-24T19:10:14.046Z,12.37
2018-05-24T19:12:40.224Z,12.70
2018-05-24T19:15:06.339Z,13.00
2018-05-24T19:17:32.460Z,12.50
2018-05-24T19:19:58.637Z,12.63
2018-05-24T19:22:24.745Z,12.50
2018-05-24T19:24:50.921Z,12.43
2018-05-24T19:27:17.821Z,12.30
2018-05-24T19:29:43.974Z,12.10
2018-05-24T19:32:10.103Z,11.60
2018-05-24T19:34:36.222Z,11.70
2018-05-24T19:37:02.340Z,13.47
2018-05-24T19:39:28.497Z,12.50
2018-05-24T19:41:54.671Z,12.90
2018-05-24T19:44:21.577Z,12.23
2018-05-24T19:46:47.751Z,12.73
2018-05-24T19:49:13.939Z,12.63
2018-05-24T19:51:40.119Z,13.00
2018-05-24T19:54:06.283Z,12.90
2018-05-24T19:56:32.491Z,12.67
2018-05-24T19:58:59.684Z,13.47
2018-05-24T20:01:25.865Z,13.43
2018-05-24T20:03:51.975Z,13.87
2018-05-24T20:06:18.108Z,13.20
2018-05-24T20:08:44.241Z,13.10
2018-05-24T20:11:10.430Z,13.30
2018-05-24T20:13:36.631Z,13.67
2018-05-24T20:16:02.767Z,14.17
2018-05-24T20:18:28.930Z,14.10
2018-05-24T20:20:55.104Z,13.93
2018-05-24T20:23:21.344Z,14.97
2018-05-24T20:25:47.523Z,13.97
2018-05-24T20:28:13.699Z,14.80
2018-05-24T20:30:39.824Z,15.17
2018-05-24T20:33:05.986Z,15.30
2018-05-24T20:35:32.212Z,14.40
2018-05-24T20:37:58.321Z,15.00
2018-05-24T20:40:24.513Z,15.47
2018-05-24T20:42:50.654Z,15.00
2018-05-24T20:45:16.783Z,15.67
2018-05-24T20:47:42.914Z,16.17
2018-05-24T20:50:09.091Z,16.00
2018-05-24T20:52:35.285Z,15.50
2018-05-24T20:55:01.434Z,15.60
2018-05-24T20:57:27.562Z,15.30
2018-05-24T20:59:53.696Z,15.63
2018-05-24T21:02:19.827Z,16.47
2018-05-24T21:04:46.041Z,16.00
2018-05-24T21:07:12.959Z,14.87
2018-05-24T21:09:39.832Z,15.53
2018-05-24T21:12:06.001Z,16.13
2018-05-24T21:14:32.146Z,15.93
2018-05-24T21:16:58.309Z,16.13
2018-05-24T21:19:25.187Z,15.83
2018-05-24T21:21:51.329Z,14.80
2018-05-24T21:24:17.444Z,15.13
2018-05-24T21:26:43.574Z,15.30
2018-05-24T21:29:09.714Z,14.90
2018-05-24T21:31:35.853Z,15.70
2018-05-24T21:34:01.968Z,15.53
2018-05-24T21:36:28.100Z,15.80
2018-05-24T21:38:54.226Z,15.30
2018-05-24T21:41:20.371Z,15.73
2018-05-24T21:43:46.553Z,14.77
2018-05-24T21:46:12.763Z,15.43
2018-05-24T21:48:38.882Z,15.77
2018-05-24T21:51:05.048Z,16.00
2018-05-24T21:53:31.173Z,15.60
2018-05-24T21:55:57.310Z,16.10
2018-05-24T21:58:23.447Z,15.77
2018-05-24T22:00:50.467Z,15.40
2018-05-24T22:03:16.585Z,16.20
2018-05-24T22:05:42.739Z,16.13
2018-05-24T22:08:08.938Z,16.33
2018-05-24T22:10:35.054Z,15.63
2018-05-24T22:13:01.186Z,16.17
2018-05-24T22:15:27.311Z,16.60
2018-05-24T22:17:53.426Z,16.47
2018-05-24T22:20:19.681Z,16.67
2018-05-24T22:22:46.526Z,16.60
2018-05-24T22:25:12.682Z,17.47
2018-05-24T22:27:38.778Z,17.47
2018-05-24T22:30:04.934Z,17.30
2018-05-24T22:32:31.079Z,16.90
2018-05-24T22:34:57.202Z,17.63
2018-05-24T22:37:23.363Z,16.73
2018-05-24T22:39:49.494Z,17.33
2018-05-24T22:42:15.648Z,18.17
2018-05-24T22:44:41.811Z,17.07
2018-05-24T22:47:07.989Z,17.63
2018-05-24T22:49:34.136Z,17.63
2018-05-24T22:52:00.286Z,17.27
2018-05-24T22:54:26.467Z,17.10
2018-05-24T22:56:52.602Z,16.90
2018-05-24T22:59:18.743Z,17.83
2018-05-24T23:01:44.894Z,17.70
2018-05-24T23:04:11.047Z,17.43
2018-05-24T23:06:37.215Z,17.50
2018-05-24T23:09:03.395Z,18.23
2018-05-24T23:11:29.558Z,18.40
2018-05-24T23:13:55.734Z,19.47
2018-05-24T23:16:21.929Z,19.40
2018-05-24T23:18:48.074Z,20.13
2018-05-24T23:21:14.239Z,20.43
2018-05-24T23:23:40.394Z,20.67
2018-05-24T23:26:06.563Z,19.10
2018-05-24T23:28:32.722Z,20.50
2018-05-24T23:30:58.894Z,19.73
2018-05-24T23:33:25.046Z,19.90
2018-05-24T23:35:51.182Z,19.67
2018-05-24T23:38:17.326Z,19.83
2018-05-24T23:40:43.475Z,20.77
2018-05-24T23:43:09.666Z,19.90
2018-05-24T23:45:35.783Z,22.07
2018-05-24T23:48:02.682Z,20.57
2018-05-24T23:50:28.826Z,20.80
2018-05-24T23:52:54.962Z,20.97
2018-05-24T23:55:21.165Z,22.03
2018-05-24T23:57:47.329Z,20.70
